createdAt,value
2022-08-03T00:00:29.471Z,12.30
2022-08-03T00:02:56.541Z,11.93
2022-08-03T00:05:23.338Z,11.27
2022-08-03T00:07:50.126Z,12.75
2022-08-03T00:10:17.387Z,14.20
2022-08-03T00:12:44.270Z,11.05
2022-08-03T00:15:16.593Z,12.68
2022-08-03T00:17:52.597Z,11.30
2022-08-03T00:20:20.132Z,11.30
2022-08-03T00:22:46.949Z,10.30
2022-08-03T00:25:13.963Z,14.20
2022-08-03T00:27:40.717Z,11.25
2022-08-03T00:30:08.415Z,10.70
2022-08-03T00:32:35.106Z,13.15
2022-08-03T00:35:07.869Z,12.65
2022-08-03T00:37:41.356Z,10.57
2022-08-03T00:40:13.713Z,11.50
2022-08-03T00:42:54.734Z,11.33
2022-08-03T00:45:25.449Z,10.82
2022-08-03T00:47:52.693Z,13.73
2022-08-03T00:50:23.022Z,10.75
2022-08-03T00:52:52.635Z,10.40
2022-08-03T00:55:19.865Z,11.32
2022-08-03T00:57:46.965Z,10.43
2022-08-03T01:00:16.694Z,12.90
2022-08-03T01:02:43.876Z,10.50
2022-08-03T01:05:11.056Z,11.27
2022-08-03T01:07:49.941Z,10.50
2022-08-03T01:10:22.717Z,10.48
2022-08-03T01:13:02.646Z,12.60
2022-08-03T01:15:58.774Z,11.60
2022-08-03T01:18:59.808Z,10.10
2022-08-03T01:21:34.055Z,12.75
2022-08-03T01:24:22.289Z,11.15
2022-08-03T01:26:54.306Z,9.63
2022-08-03T01:29:55.129Z,10.60
2022-08-03T01:32:58.153Z,13.10
2022-08-03T01:35:26.119Z,11.73
2022-08-03T01:38:04.790Z,13.93
2022-08-03T01:40:34.519Z,12.38
2022-08-03T01:43:04.632Z,10.88
2022-08-03T01:45:34.232Z,10.40
2022-08-03T01:48:02.665Z,11.45
2022-08-03T01:50:31.972Z,10.45
2022-08-03T01:52:59.640Z,10.73
2022-08-03T01:55:30.012Z,10.57
2022-08-03T01:58:05.800Z,12.52
2022-08-03T02:00:36.931Z,10.18
2022-08-03T02:03:06.309Z,11.73
2022-08-03T02:05:34.163Z,10.90
2022-08-03T02:08:03.585Z,9.38
2022-08-03T02:10:34.884Z,9.82
2022-08-03T02:13:05.182Z,9.50
2022-08-03T02:15:33.864Z,10.15
2022-08-03T02:18:03.258Z,10.45
2022-08-03T02:20:33.261Z,9.57
2022-08-03T02:23:00.398Z,12.05
2022-08-03T02:25:28.374Z,9.85
2022-08-03T02:27:57.986Z,12.00
2022-08-03T02:30:38.553Z,13.38
2022-08-03T02:33:10.950Z,11.60
2022-08-03T02:35:40.077Z,10.00
2022-08-03T02:38:10.272Z,10.95
2022-08-03T02:40:38.688Z,10.80
2022-08-03T02:43:12.486Z,14.65
2022-08-03T02:45:45.916Z,9.18
2022-08-03T02:48:23.233Z,13.07
2022-08-03T02:50:53.068Z,10.57
2022-08-03T02:53:21.634Z,11.73
2022-08-03T02:55:50.153Z,8.95
2022-08-03T02:58:21.275Z,10.65
2022-08-03T03:00:49.669Z,10.75
2022-08-03T03:03:16.585Z,11.68
2022-08-03T03:05:54.518Z,8.23
2022-08-03T03:08:28.654Z,8.50
2022-08-03T03:10:59.451Z,10.68
2022-08-03T03:13:28.857Z,11.77
2022-08-03T03:15:57.772Z,9.98
2022-08-03T03:18:27.515Z,12.98
2022-08-03T03:20:55.810Z,8.48
2022-08-03T03:23:24.983Z,9.40
2022-08-03T03:25:53.312Z,8.82
2022-08-03T03:28:20.896Z,7.50
2022-08-03T03:30:52.726Z,8.27
2022-08-03T03:33:21.689Z,7.78
2022-08-03T03:35:48.858Z,10.40
2022-08-03T03:38:15.937Z,8.45
2022-08-03T03:40:43.152Z,7.57
2022-08-03T03:43:13.366Z,9.13
2022-08-03T03:45:43.596Z,9.13
2022-08-03T03:48:10.918Z,8.52
2022-08-03T03:50:41.075Z,8.15
2022-08-03T03:53:14.343Z,8.93
2022-08-03T03:55:59.111Z,7.90
2022-08-03T03:58:29.361Z,10.65
2022-08-03T04:00:56.298Z,7.07
2022-08-03T04:03:23.037Z,9.02
2022-08-03T04:06:08.994Z,7.43
2022-08-03T04:08:54.575Z,8.75
2022-08-03T04:11:38.664Z,7.78
2022-08-03T04:14:10.096Z,7.05
2022-08-03T04:16:43.690Z,8.63
2022-08-03T04:19:19.664Z,8.57
2022-08-03T04:21:53.035Z,7.45
2022-08-03T04:24:26.602Z,7.65
2022-08-03T04:26:56.230Z,8.82
2022-08-03T04:29:26.064Z,6.47
2022-08-03T04:31:55.784Z,8.15
2022-08-03T04:34:22.747Z,8.32
2022-08-03T04:36:55.178Z,7.28
2022-08-03T04:39:26.715Z,10.77
2022-08-03T04:42:02.184Z,7.60
2022-08-03T04:44:38.786Z,8.07
2022-08-03T04:47:05.784Z,8.85
2022-08-03T04:49:32.924Z,8.77
2022-08-03T04:51:59.972Z,13.15
2022-08-03T04:54:26.978Z,10.52
2022-08-03T04:56:53.763Z,8.57
2022-08-03T04:59:20.482Z,9.05
2022-08-03T05:01:47.423Z,7.63
2022-08-03T05:04:14.672Z,13.55
2022-08-03T05:06:48.149Z,9.40
2022-08-03T05:09:46.078Z,6.68
2022-08-03T05:12:06.082Z,6.88
2022-08-03T05:14:33.910Z,11.00
2022-08-03T05:17:00.680Z,7.43
2022-08-03T05:19:27.487Z,9.68
2022-08-03T05:21:54.341Z,9.85
2022-08-03T05:24:21.039Z,11.45
2022-08-03T05:26:47.892Z,8.27
2022-08-03T05:29:14.615Z,8.15
2022-08-03T05:31:41.556Z,7.78
2022-08-03T05:34:08.472Z,8.52
2022-08-03T05:36:35.232Z,8.15
2022-08-03T05:39:02.940Z,6.97
2022-08-03T05:41:36.791Z,7.22
2022-08-03T05:44:04.495Z,8.43
2022-08-03T05:46:31.420Z,7.60
2022-08-03T05:48:58.347Z,7.28
2022-08-03T05:51:25.153Z,8.70
2022-08-03T05:53:52.345Z,6.65
2022-08-03T05:56:23.799Z,7.60
2022-08-03T05:58:52.178Z,6.05
2022-08-03T06:01:21.892Z,9.30
2022-08-03T06:03:49.880Z,7.60
2022-08-03T06:06:17.194Z,6.68
2022-08-03T06:08:45.073Z,6.63
2022-08-03T06:11:12.962Z,7.97
2022-08-03T06:13:40.271Z,8.80
2022-08-03T06:16:07.157Z,5.75
2022-08-03T06:18:34.647Z,5.45
2022-08-03T06:21:14.787Z,7.07
2022-08-03T06:23:54.810Z,8.18
2022-08-03T06:26:27.006Z,10.55
2022-08-03T06:28:55.139Z,7.25
2022-08-03T06:31:25.975Z,7.35
2022-08-03T06:34:32.434Z,5.20
2022-08-03T06:36:48.497Z,5.00
2022-08-03T06:39:15.284Z,6.65
2022-08-03T06:41:44.912Z,5.00
2022-08-03T06:44:12.371Z,7.50
2022-08-03T06:46:39.358Z,6.65
2022-08-03T06:49:07.480Z,6.50
2022-08-03T06:52:06.174Z,6.97
2022-08-03T06:54:22.303Z,5.60
2022-08-03T06:56:49.322Z,7.75
2022-08-03T07:00:07.553Z,5.63
2022-08-03T07:02:03.863Z,7.30
2022-08-03T07:04:30.715Z,6.80
2022-08-03T07:06:58.558Z,5.20
2022-08-03T07:09:26.914Z,5.57
2022-08-03T07:11:54.563Z,4.95
2022-08-03T07:14:21.797Z,6.63
2022-08-03T07:16:49.734Z,5.60
2022-08-03T07:19:16.853Z,7.60
2022-08-03T07:21:43.712Z,7.57
2022-08-03T07:24:10.478Z,6.07
2022-08-03T07:26:37.197Z,6.45
2022-08-03T07:29:04.050Z,5.70
2022-08-03T07:31:42.242Z,6.32
2022-08-03T07:34:09.240Z,7.80
2022-08-03T07:36:36.056Z,7.50
2022-08-03T07:39:17.747Z,6.22
2022-08-03T07:44:21.810Z,4.85
2022-08-03T07:46:48.619Z,8.70
2022-08-03T07:49:15.363Z,6.53
2022-08-03T07:51:42.321Z,5.68
2022-08-03T07:54:10.238Z,4.32
2022-08-03T07:56:37.566Z,7.45
2022-08-03T07:59:04.404Z,4.05
2022-08-03T08:01:35.940Z,6.97
2022-08-03T08:04:02.803Z,4.10
2022-08-03T08:06:29.810Z,6.30
2022-08-03T08:09:01.731Z,5.68
2022-08-03T08:11:28.490Z,4.93
2022-08-03T08:13:55.276Z,6.18
2022-08-03T08:16:22.034Z,4.60
2022-08-03T08:18:48.800Z,6.32
2022-08-03T08:21:15.593Z,4.47
2022-08-03T08:23:46.227Z,7.35
2022-08-03T08:26:17.331Z,4.93
2022-08-03T08:28:44.230Z,5.47
2022-08-03T08:31:11.042Z,5.63
2022-08-03T08:34:02.676Z,5.32
2022-08-03T08:36:24.685Z,7.55
2022-08-03T08:38:51.520Z,7.25
2022-08-03T08:41:18.356Z,5.93
2022-08-03T08:43:45.081Z,8.10
2022-08-03T08:46:13.114Z,5.95
2022-08-03T08:48:52.071Z,8.48
2022-08-03T08:51:20.702Z,4.88
2022-08-03T08:53:51.488Z,7.20
2022-08-03T08:56:19.956Z,6.30
2022-08-03T08:58:51.798Z,6.22
2022-08-03T09:03:47.738Z,5.72
2022-08-03T09:06:15.183Z,5.65
2022-08-03T09:08:42.030Z,6.25
2022-08-03T09:11:09.599Z,8.68
2022-08-03T09:13:39.285Z,4.85
2022-08-03T09:16:20.311Z,6.70
2022-08-03T09:18:53.145Z,5.30
2022-08-03T09:21:32.931Z,5.03
2022-08-03T09:24:04.795Z,7.68
2022-08-03T09:26:34.298Z,6.28
2022-08-03T09:32:03.020Z,6.47
2022-08-03T09:34:30.721Z,7.68
2022-08-03T09:37:00.706Z,5.45
2022-08-03T09:39:42.184Z,8.93
2022-08-03T09:42:15.070Z,7.80
2022-08-03T09:44:44.673Z,6.68
2022-08-03T09:47:13.265Z,6.30
2022-08-03T09:49:42.087Z,6.45
2022-08-03T09:52:32.222Z,5.32
2022-08-03T09:55:02.910Z,5.78
2022-08-03T09:57:31.148Z,5.13
2022-08-03T10:00:12.723Z,4.80
2022-08-03T10:02:41.651Z,5.18
2022-08-03T10:05:10.580Z,5.40
2022-08-03T10:07:46.032Z,4.38
2022-08-03T10:10:28.891Z,5.65
2022-08-03T10:13:00.371Z,5.13
2022-08-03T10:16:22.448Z,6.32
2022-08-03T10:18:14.741Z,4.78
2022-08-03T10:20:50.023Z,6.95
2022-08-03T10:23:18.287Z,6.45
2022-08-03T10:25:48.496Z,5.22
2022-08-03T10:28:18.451Z,6.10
2022-08-03T10:30:49.293Z,4.75
2022-08-03T10:33:51.416Z,8.33
2022-08-03T10:36:13.898Z,4.68
2022-08-03T10:38:49.665Z,6.05
2022-08-03T10:41:20.641Z,4.97
2022-08-03T10:43:59.165Z,4.72
2022-08-03T10:46:27.419Z,5.63
2022-08-03T10:48:56.680Z,5.70
2022-08-03T10:51:24.246Z,5.53
2022-08-03T10:53:54.658Z,4.82
2022-08-03T10:56:54.401Z,5.90
2022-08-03T10:59:59.472Z,10.27
2022-08-03T11:03:06.225Z,5.85
2022-08-03T11:05:53.653Z,6.18
2022-08-03T11:08:24.439Z,6.95
2022-08-03T11:10:53.860Z,9.35
2022-08-03T11:13:22.968Z,16.17
2022-08-03T11:15:52.965Z,9.50
2022-08-03T11:18:27.424Z,13.10
2022-08-03T11:20:59.440Z,10.57
2022-08-03T11:24:03.338Z,12.68
2022-08-03T11:26:33.798Z,9.98
2022-08-03T11:29:29.628Z,9.45
2022-08-03T11:31:56.752Z,8.98
2022-08-03T11:34:24.684Z,10.77
2022-08-03T11:37:30.178Z,12.95
2022-08-03T11:39:59.765Z,12.30
2022-08-03T11:42:27.185Z,6.68
2022-08-03T11:44:55.971Z,7.80
2022-08-03T11:47:24.462Z,7.30
2022-08-03T11:49:53.992Z,5.97
2022-08-03T11:52:26.940Z,6.75
2022-08-03T11:54:57.197Z,6.00
2022-08-03T11:59:18.874Z,6.80
2022-08-03T12:00:32.761Z,10.02
2022-08-03T12:03:03.834Z,4.88
2022-08-03T12:05:35.610Z,8.07
2022-08-03T12:08:06.449Z,9.40
2022-08-03T12:10:34.582Z,6.65
2022-08-03T12:13:05.921Z,6.88
2022-08-03T12:15:59.184Z,6.25
2022-08-03T12:18:26.231Z,5.97
2022-08-03T12:21:03.348Z,7.75
2022-08-03T12:23:30.879Z,7.57
2022-08-03T12:26:08.081Z,6.88
2022-08-03T12:28:37.930Z,9.80
2022-08-03T12:31:07.674Z,6.13
2022-08-03T12:33:59.217Z,7.38
2022-08-03T12:36:28.860Z,6.57
2022-08-03T12:38:59.117Z,7.25
2022-08-03T12:41:40.777Z,6.25
2022-08-03T12:44:09.601Z,5.10
2022-08-03T12:46:46.946Z,5.60
2022-08-03T12:49:17.363Z,6.53
2022-08-03T12:51:44.180Z,5.13
2022-08-03T12:54:32.630Z,5.38
2022-08-03T12:56:59.838Z,4.63
2022-08-03T12:59:32.337Z,6.75
2022-08-03T13:02:16.462Z,7.10
2022-08-03T13:04:50.080Z,5.93
2022-08-03T13:07:18.508Z,6.88
2022-08-03T13:09:47.639Z,8.40
2022-08-03T13:12:22.742Z,5.50
2022-08-03T13:14:55.738Z,6.75
2022-08-03T13:17:22.850Z,5.90
2022-08-03T13:19:51.346Z,7.30
2022-08-03T13:22:24.371Z,6.15
2022-08-03T13:24:55.875Z,8.48
2022-08-03T13:28:04.198Z,5.47
2022-08-03T13:30:10.403Z,9.13
2022-08-03T13:32:37.461Z,5.18
2022-08-03T13:35:05.525Z,5.65
2022-08-03T13:37:32.623Z,8.13
2022-08-03T13:40:02.522Z,5.00
2022-08-03T13:42:31.848Z,5.82
2022-08-03T13:44:59.961Z,8.63
2022-08-03T13:47:27.719Z,5.43
2022-08-03T13:50:01.510Z,7.00
2022-08-03T13:52:33.849Z,4.57
2022-08-03T13:55:01.891Z,3.75
2022-08-03T13:58:02.554Z,6.15
2022-08-03T14:00:27.497Z,4.78
2022-08-03T14:03:02.996Z,3.55
2022-08-03T14:05:33.473Z,4.88
2022-08-03T14:08:04.897Z,4.20
2022-08-03T14:10:33.905Z,5.72
2022-08-03T14:13:00.816Z,4.47
2022-08-03T14:15:28.837Z,5.20
2022-08-03T14:17:58.552Z,6.22
2022-08-03T14:20:37.850Z,6.25
2022-08-03T14:23:14.351Z,5.93
2022-08-03T14:25:44.416Z,6.00
2022-08-03T14:28:18.468Z,6.65
2022-08-03T14:30:46.233Z,7.95
2022-08-03T14:33:13.184Z,6.70
2022-08-03T14:35:40.264Z,5.95
2022-08-03T14:38:07.172Z,5.07
2022-08-03T14:40:34.102Z,6.10
2022-08-03T14:43:01.007Z,6.13
2022-08-03T14:45:27.875Z,6.45
2022-08-03T14:50:10.426Z,5.20
2022-08-03T14:50:51.042Z,6.88
2022-08-03T14:53:19.606Z,4.97
2022-08-03T14:55:50.878Z,7.18
2022-08-03T14:58:22.992Z,4.75
2022-08-03T15:00:51.748Z,5.20
2022-08-03T15:03:23.136Z,6.38
2022-08-03T15:05:55.557Z,5.38
2022-08-03T15:10:50.671Z,6.10
2022-08-03T15:13:18.287Z,7.35
2022-08-03T15:15:45.493Z,5.07
2022-08-03T15:18:12.444Z,4.47
2022-08-03T15:20:44.998Z,6.07
2022-08-03T15:23:13.990Z,4.80
2022-08-03T15:26:28.462Z,4.95
2022-08-03T15:28:27.920Z,4.82
2022-08-03T15:33:50.762Z,6.70
2022-08-03T15:36:21.547Z,6.18
2022-08-03T15:38:48.601Z,8.77
2022-08-03T15:41:15.647Z,6.35
2022-08-03T15:43:42.609Z,6.03
2022-08-03T15:46:30.407Z,8.25
2022-08-03T15:51:24.044Z,6.85
2022-08-03T15:53:50.902Z,6.65
2022-08-03T15:56:18.843Z,6.40
2022-08-03T15:59:10.065Z,6.63
2022-08-03T16:01:32.924Z,5.55
2022-08-03T16:03:59.964Z,5.68
2022-08-03T16:06:35.032Z,7.47
2022-08-03T16:09:05.610Z,5.30
2022-08-03T16:11:51.410Z,6.47
2022-08-03T16:14:33.537Z,5.20
2022-08-03T16:17:05.170Z,5.05
2022-08-03T16:19:32.000Z,7.07
2022-08-03T16:21:59.425Z,6.13
2022-08-03T16:24:28.214Z,7.07
2022-08-03T16:26:55.953Z,8.55
2022-08-03T16:29:23.571Z,7.60
2022-08-03T16:31:51.556Z,8.48
2022-08-03T16:34:18.995Z,9.20
2022-08-03T16:36:45.978Z,8.57
2022-08-03T16:39:12.918Z,7.07
2022-08-03T16:41:53.909Z,6.68
2022-08-03T16:44:27.031Z,6.45
2022-08-03T16:46:55.293Z,8.02
2022-08-03T16:49:53.763Z,9.25
2022-08-03T16:52:09.241Z,8.57
2022-08-03T16:54:39.913Z,7.53
2022-08-03T16:57:07.554Z,7.63
2022-08-03T16:59:36.708Z,8.18
2022-08-03T17:02:09.702Z,7.05
2022-08-03T17:04:36.990Z,8.18
2022-08-03T17:07:18.686Z,9.00
2022-08-03T17:09:47.861Z,7.90
2022-08-03T17:12:16.781Z,9.57
2022-08-03T17:14:45.000Z,9.80
2022-08-03T17:17:47.654Z,9.98
2022-08-03T17:20:21.773Z,11.52
2022-08-03T17:23:03.232Z,9.70
2022-08-03T17:25:39.759Z,11.57
2022-08-03T17:28:48.490Z,9.40
2022-08-03T17:31:23.496Z,16.23
2022-08-03T17:34:01.669Z,12.68
2022-08-03T17:37:01.661Z,9.32
2022-08-03T17:39:23.547Z,9.50
2022-08-03T17:42:00.844Z,6.18
2022-08-03T17:44:41.453Z,7.05
2022-08-03T17:47:11.077Z,6.75
2022-08-03T17:49:40.048Z,6.68
2022-08-03T17:52:41.510Z,7.07
2022-08-03T17:55:57.871Z,8.30
2022-08-03T17:58:17.583Z,8.82
2022-08-03T18:02:00.351Z,10.30
2022-08-03T18:03:59.259Z,10.18
2022-08-03T18:06:31.284Z,13.70
2022-08-03T18:09:04.664Z,15.00
2022-08-03T18:15:00.676Z,13.07
2022-08-03T18:17:55.001Z,12.93
2022-08-03T18:20:31.282Z,14.60
2022-08-03T18:23:04.814Z,16.90
2022-08-03T18:25:56.132Z,16.15
2022-08-03T18:28:27.027Z,15.55
2022-08-03T18:30:55.284Z,16.90
2022-08-03T18:34:19.856Z,20.83
2022-08-03T18:36:21.755Z,16.60
2022-08-03T18:38:53.879Z,21.25
2022-08-03T18:41:33.311Z,18.43
2022-08-03T18:44:08.349Z,19.25
2022-08-03T18:50:21.343Z,17.98
2022-08-03T18:53:02.781Z,18.27
2022-08-03T18:55:35.814Z,14.90
2022-08-03T18:58:18.206Z,16.88
2022-08-03T19:01:15.255Z,16.38
2022-08-03T19:03:58.489Z,18.10
2022-08-03T19:06:29.834Z,17.42
2022-08-03T19:09:09.490Z,16.35
2022-08-03T19:12:13.274Z,17.73
2022-08-03T19:14:41.696Z,17.45
2022-08-03T19:17:11.369Z,18.75
2022-08-03T19:19:44.554Z,18.80
2022-08-03T19:22:16.040Z,21.02
2022-08-03T19:24:45.650Z,23.02
2022-08-03T19:27:15.881Z,25.08
2022-08-03T19:29:59.387Z,26.42
2022-08-03T19:32:32.255Z,25.67
2022-08-03T19:35:01.953Z,29.77
2022-08-03T19:37:38.263Z,36.45
2022-08-03T19:40:10.236Z,29.60
2022-08-03T19:42:44.636Z,35.45
2022-08-03T19:45:15.626Z,32.55
2022-08-03T19:47:52.542Z,33.72
2022-08-03T19:50:20.656Z,40.00
2022-08-03T19:52:49.730Z,35.17
2022-08-03T19:55:17.915Z,37.28
2022-08-03T19:57:49.150Z,44.15
2022-08-03T20:00:19.978Z,43.78
2022-08-03T20:02:53.222Z,39.40
2022-08-03T20:05:20.530Z,43.53
2022-08-03T20:07:48.047Z,41.25
2022-08-03T20:10:17.644Z,38.33
2022-08-03T20:12:46.382Z,36.53
2022-08-03T20:15:14.023Z,39.63
2022-08-03T20:17:55.416Z,42.28
2022-08-03T20:20:37.333Z,39.78
2022-08-03T20:23:11.493Z,43.35
2022-08-03T20:25:55.692Z,41.53
2022-08-03T20:28:50.180Z,43.28
2022-08-03T20:31:20.806Z,40.95
2022-08-03T20:33:49.618Z,43.38
2022-08-03T20:36:18.572Z,41.42
2022-08-03T20:38:47.856Z,43.28
2022-08-03T20:41:18.716Z,43.40
2022-08-03T20:43:49.292Z,43.78
2022-08-03T20:46:32.639Z,41.90
2022-08-03T20:49:06.702Z,45.65
2022-08-03T20:51:48.941Z,37.83
2022-08-03T20:54:22.768Z,47.35
2022-08-03T20:56:58.098Z,41.22
2022-08-03T20:59:35.063Z,45.38
2022-08-03T21:02:05.570Z,43.63
2022-08-03T21:04:32.424Z,47.00
2022-08-03T21:07:03.744Z,48.75
2022-08-03T21:09:56.051Z,47.20
2022-08-03T21:12:33.919Z,50.30
2022-08-03T21:13:00.462Z,17.83
2022-08-03T21:13:04.918Z,12.13
2022-08-03T21:15:06.145Z,48.83
2022-08-03T21:17:40.974Z,50.53
2022-08-03T21:20:10.826Z,48.92
2022-08-03T21:22:39.241Z,61.83
2022-08-03T21:25:09.353Z,52.28
2022-08-03T21:27:37.289Z,57.50
2022-08-03T21:30:09.959Z,55.65
2022-08-03T21:35:10.713Z,48.28
2022-08-03T21:37:42.112Z,57.40
2022-08-03T21:40:13.272Z,52.20
2022-08-03T21:42:41.539Z,50.05
2022-08-03T21:45:16.887Z,53.67
2022-08-03T21:47:45.316Z,46.15
2022-08-03T21:50:13.618Z,46.97
2022-08-03T21:52:43.604Z,53.03
2022-08-03T21:55:20.591Z,51.85
2022-08-03T21:57:53.196Z,44.22
2022-08-03T22:00:23.200Z,46.13
2022-08-03T22:02:57.237Z,48.33
2022-08-03T22:05:42.574Z,45.08
2022-08-03T22:08:14.886Z,45.08
2022-08-03T22:10:45.087Z,46.70
2022-08-03T22:13:14.408Z,54.28
2022-08-03T22:15:42.094Z,48.88
2022-08-03T22:18:09.465Z,49.67
2022-08-03T22:20:37.806Z,53.42
2022-08-03T22:23:06.918Z,45.10
2022-08-03T22:25:36.708Z,45.22
2022-08-03T22:28:10.414Z,54.00
2022-08-03T22:30:38.876Z,49.03
2022-08-03T22:33:11.509Z,49.83
2022-08-03T22:35:47.791Z,48.40
2022-08-03T22:38:17.578Z,46.83
2022-08-03T22:40:47.083Z,49.67
2022-08-03T22:43:14.445Z,48.15
2022-08-03T22:46:09.463Z,53.22
2022-08-03T22:48:34.463Z,48.97
2022-08-03T22:51:02.775Z,53.70
2022-08-03T22:53:30.137Z,56.13
2022-08-03T22:55:59.087Z,54.90
2022-08-03T22:58:25.905Z,60.47
2022-08-03T23:00:56.431Z,60.33
2022-08-03T23:04:00.805Z,58.15
2022-08-03T23:06:21.646Z,56.67
2022-08-03T23:08:50.321Z,60.33
2022-08-03T23:11:18.818Z,56.67
2022-08-03T23:13:52.328Z,55.63
2022-08-03T23:16:29.625Z,56.58
2022-08-03T23:18:59.545Z,55.63
2022-08-03T23:21:53.822Z,53.95
2022-08-03T23:24:26.083Z,55.50
2022-08-03T23:26:58.167Z,47.63
2022-08-03T23:29:26.623Z,48.03
2022-08-03T23:31:54.339Z,48.35
2022-08-03T23:34:41.947Z,44.88
2022-08-03T23:37:09.542Z,45.70
2022-08-03T23:39:38.088Z,43.22
2022-08-03T23:42:06.095Z,44.38
2022-08-03T23:44:36.776Z,45.28
2022-08-03T23:47:03.866Z,41.92
2022-08-03T23:49:30.837Z,39.50
2022-08-03T23:52:14.678Z,39.65
2022-08-03T23:54:41.512Z,42.88
2022-08-03T23:57:17.319Z,39.92
